createdAt,value
2018-01-14T00:00:20.928Z,5.32
2018-01-14T00:01:23.459Z,5.21
2018-01-14T00:02:25.943Z,5.26
2018-01-14T00:03:28.450Z,5.26
2018-01-14T00:04:30.913Z,5.17
2018-01-14T00:05:33.377Z,5.29
2018-01-14T00:06:35.855Z,5.17
2018-01-14T00:07:38.322Z,5.28
2018-01-14T00:08:40.796Z,5.36
2018-01-14T00:09:43.294Z,5.32
2018-01-14T00:10:45.757Z,5.16
2018-01-14T00:11:48.235Z,5.23
2018-01-14T00:12:50.728Z,5.24
2018-01-14T00:13:53.226Z,5.24
2018-01-14T00:14:55.735Z,5.13
2018-01-14T00:15:58.211Z,5.19
2018-01-14T00:17:00.684Z,5.13
2018-01-14T00:18:03.164Z,5.14
2018-01-14T00:19:05.657Z,5.06
2018-01-14T00:20:08.136Z,5.11
2018-01-14T00:21:10.598Z,5.13
2018-01-14T00:22:13.062Z,5.08
2018-01-14T00:23:15.536Z,5.18
2018-01-14T00:24:18.014Z,5.12
2018-01-14T00:25:20.482Z,5.15
2018-01-14T00:26:22.959Z,5.24
2018-01-14T00:27:25.431Z,5.19
2018-01-14T00:28:27.907Z,5.19
2018-01-14T00:29:30.371Z,5.17
2018-01-14T00:30:32.844Z,5.13
2018-01-14T00:31:35.332Z,4.99
2018-01-14T00:32:37.809Z,5.06
2018-01-14T00:33:40.291Z,5.14
2018-01-14T00:34:42.775Z,5.15
2018-01-14T00:35:45.247Z,5.11
2018-01-14T00:36:47.727Z,5.06
2018-01-14T00:37:50.199Z,5.02
2018-01-14T00:38:52.661Z,5.17
2018-01-14T00:39:55.131Z,5.15
2018-01-14T00:40:57.614Z,5.16
2018-01-14T00:42:00.078Z,5.10
2018-01-14T00:43:02.553Z,5.13
2018-01-14T00:44:05.043Z,5.08
2018-01-14T00:45:07.505Z,5.03
2018-01-14T00:46:09.989Z,5.15
2018-01-14T00:47:12.466Z,5.26
2018-01-14T00:48:14.961Z,5.19
2018-01-14T00:49:17.430Z,5.17
2018-01-14T00:50:19.896Z,5.13
2018-01-14T00:51:22.413Z,5.02
2018-01-14T00:52:24.953Z,4.91
2018-01-14T00:53:27.465Z,5.03
2018-01-14T00:54:29.922Z,5.08
2018-01-14T00:55:32.390Z,5.07
2018-01-14T00:56:34.880Z,5.10
2018-01-14T00:57:37.354Z,5.07
2018-01-14T00:58:39.828Z,4.95
2018-01-14T00:59:42.308Z,4.92
2018-01-14T01:00:44.808Z,4.89
2018-01-14T01:01:47.289Z,5.00
2018-01-14T01:02:49.771Z,4.95
2018-01-14T01:03:52.247Z,4.96
2018-01-14T01:04:54.726Z,4.77
2018-01-14T01:05:57.199Z,4.84
2018-01-14T01:06:59.702Z,4.89
2018-01-14T01:08:02.166Z,4.92
2018-01-14T01:09:04.685Z,4.90
2018-01-14T01:10:07.159Z,4.91
2018-01-14T01:11:09.631Z,4.80
2018-01-14T01:12:12.143Z,4.77
2018-01-14T01:13:14.616Z,4.84
2018-01-14T01:14:17.099Z,4.78
2018-01-14T01:15:19.562Z,4.90
2018-01-14T01:16:22.022Z,4.88
2018-01-14T01:17:24.525Z,4.79
2018-01-14T01:18:27.004Z,4.83
2018-01-14T01:19:29.468Z,4.87
2018-01-14T01:20:31.937Z,4.76
2018-01-14T01:21:34.416Z,4.80
2018-01-14T01:22:36.903Z,4.71
2018-01-14T01:23:39.380Z,4.67
2018-01-14T01:24:41.864Z,4.77
2018-01-14T01:25:44.322Z,4.83
2018-01-14T01:26:46.786Z,4.83
2018-01-14T01:27:49.414Z,4.82
2018-01-14T01:28:51.880Z,4.75
2018-01-14T01:29:54.352Z,4.69
2018-01-14T01:30:56.824Z,4.71
2018-01-14T01:31:59.324Z,4.71
2018-01-14T01:33:01.921Z,4.69
2018-01-14T01:34:04.383Z,4.73
2018-01-14T01:35:06.846Z,4.72
2018-01-14T01:36:09.349Z,4.62
2018-01-14T01:37:11.810Z,4.63
2018-01-14T01:38:14.283Z,4.69
2018-01-14T01:39:16.771Z,4.64
2018-01-14T01:40:19.265Z,4.60
2018-01-14T01:41:21.743Z,4.62
2018-01-14T01:42:24.201Z,4.59
2018-01-14T01:43:26.674Z,4.72
2018-01-14T01:44:29.158Z,4.62
2018-01-14T01:45:31.644Z,4.66
2018-01-14T01:46:34.113Z,4.65
2018-01-14T01:47:37.501Z,4.67
2018-01-14T01:48:39.961Z,4.66
2018-01-14T01:49:42.448Z,4.69
2018-01-14T01:50:44.910Z,4.67
2018-01-14T01:51:47.384Z,4.64
2018-01-14T01:52:49.858Z,4.65
2018-01-14T01:53:52.321Z,4.67
2018-01-14T01:54:54.795Z,4.61
2018-01-14T01:55:57.271Z,4.62
2018-01-14T01:56:59.744Z,4.59
2018-01-14T01:58:02.202Z,4.61
2018-01-14T01:59:04.680Z,4.68
2018-01-14T02:00:07.170Z,4.72
2018-01-14T02:01:09.626Z,4.71
2018-01-14T02:02:12.104Z,4.74
2018-01-14T02:03:14.576Z,4.63
2018-01-14T02:04:17.078Z,4.60
2018-01-14T02:05:19.553Z,4.55
2018-01-14T02:06:22.010Z,4.54
2018-01-14T02:07:24.483Z,4.55
2018-01-14T02:08:26.965Z,4.58
2018-01-14T02:09:29.447Z,4.57
2018-01-14T02:10:31.923Z,4.63
2018-01-14T02:11:34.381Z,4.66
2018-01-14T02:12:36.845Z,4.71
2018-01-14T02:13:39.398Z,4.66
2018-01-14T02:14:41.899Z,4.70
2018-01-14T02:15:44.365Z,4.65
2018-01-14T02:16:46.847Z,4.68
2018-01-14T02:17:49.324Z,4.63
2018-01-14T02:18:51.786Z,4.62
2018-01-14T02:19:54.253Z,4.64
2018-01-14T02:20:56.722Z,4.65
2018-01-14T02:21:59.203Z,4.66
2018-01-14T02:23:01.697Z,4.63
2018-01-14T02:24:04.166Z,4.68
2018-01-14T02:25:06.626Z,4.62
2018-01-14T02:26:09.104Z,4.60
2018-01-14T02:27:11.577Z,4.55
2018-01-14T02:28:14.080Z,4.48
2018-01-14T02:29:16.558Z,4.55
2018-01-14T02:30:19.047Z,4.57
2018-01-14T02:31:21.507Z,4.56
2018-01-14T02:32:23.977Z,4.62
2018-01-14T02:33:26.447Z,4.57
2018-01-14T02:34:28.923Z,4.61
2018-01-14T02:35:31.386Z,4.60
2018-01-14T02:36:33.845Z,4.52
2018-01-14T02:37:36.320Z,4.46
2018-01-14T02:38:38.796Z,4.49
2018-01-14T02:39:41.276Z,4.47
2018-01-14T02:40:43.739Z,4.36
2018-01-14T02:41:46.203Z,4.32
2018-01-14T02:42:48.725Z,4.38
2018-01-14T02:43:51.181Z,4.41
2018-01-14T02:44:53.646Z,4.41
2018-01-14T02:45:56.110Z,4.41
2018-01-14T02:46:58.563Z,4.40
2018-01-14T02:48:01.023Z,4.37
2018-01-14T02:49:03.481Z,4.42
2018-01-14T02:50:05.946Z,4.43
2018-01-14T02:51:08.421Z,4.37
2018-01-14T02:52:10.914Z,4.38
2018-01-14T02:53:13.374Z,4.30
2018-01-14T02:54:15.853Z,4.37
2018-01-14T02:55:18.348Z,4.31
2018-01-14T02:56:20.831Z,4.21
2018-01-14T02:57:23.309Z,4.34
2018-01-14T02:58:25.795Z,4.22
2018-01-14T02:59:28.261Z,4.28
2018-01-14T03:00:30.722Z,4.18
2018-01-14T03:01:33.194Z,4.26
2018-01-14T03:02:35.657Z,4.30
2018-01-14T03:03:38.131Z,4.35
2018-01-14T03:04:40.594Z,4.34
2018-01-14T03:05:43.071Z,4.39
2018-01-14T03:06:45.533Z,4.41
2018-01-14T03:07:47.993Z,4.32
2018-01-14T03:08:50.457Z,4.35
2018-01-14T03:09:52.940Z,4.27
2018-01-14T03:10:55.420Z,4.28
2018-01-14T03:11:57.883Z,4.28
2018-01-14T03:13:00.354Z,4.35
2018-01-14T03:14:02.875Z,4.34
2018-01-14T03:15:05.312Z,4.40
2018-01-14T03:16:07.823Z,4.32
2018-01-14T03:17:10.277Z,4.41
2018-01-14T03:18:12.750Z,4.38
2018-01-14T03:19:15.232Z,4.27
2018-01-14T03:20:17.694Z,4.35
2018-01-14T03:21:20.184Z,4.33
2018-01-14T03:22:22.667Z,4.30
2018-01-14T03:23:25.130Z,4.31
2018-01-14T03:24:27.593Z,4.28
2018-01-14T03:25:30.073Z,4.20
2018-01-14T03:26:32.530Z,4.21
2018-01-14T03:27:34.994Z,4.27
2018-01-14T03:28:37.473Z,4.28
2018-01-14T03:29:39.952Z,4.29
2018-01-14T03:30:42.414Z,4.31
2018-01-14T03:31:44.891Z,4.27
2018-01-14T03:32:47.368Z,4.32
2018-01-14T03:33:49.830Z,4.35
2018-01-14T03:34:52.300Z,4.30
2018-01-14T03:35:54.779Z,4.34
2018-01-14T03:36:57.256Z,4.25
2018-01-14T03:37:59.717Z,4.17
2018-01-14T03:39:02.190Z,4.17
2018-01-14T03:40:04.663Z,4.21
2018-01-14T03:41:07.118Z,4.18
2018-01-14T03:42:09.577Z,4.15
2018-01-14T03:43:12.054Z,4.14
2018-01-14T03:44:14.514Z,4.22
2018-01-14T03:45:16.981Z,4.20
2018-01-14T03:46:19.453Z,4.20
2018-01-14T03:47:21.916Z,4.25
2018-01-14T03:48:24.387Z,4.23
2018-01-14T03:49:26.845Z,4.20
2018-01-14T03:50:29.310Z,4.17
2018-01-14T03:51:31.778Z,4.13
2018-01-14T03:52:34.247Z,4.12
2018-01-14T03:53:36.706Z,4.08
2018-01-14T03:54:39.184Z,4.05
2018-01-14T03:55:41.646Z,4.15
2018-01-14T03:56:44.133Z,4.17
2018-01-14T03:57:46.616Z,4.19
2018-01-14T03:58:49.104Z,4.18
2018-01-14T03:59:51.587Z,4.25
2018-01-14T04:00:54.057Z,4.22
2018-01-14T04:01:56.539Z,4.23
2018-01-14T04:02:59.025Z,4.13
2018-01-14T04:04:01.489Z,4.15
2018-01-14T04:05:03.997Z,4.06
2018-01-14T04:06:06.472Z,4.09
2018-01-14T04:07:08.936Z,4.20
2018-01-14T04:08:11.401Z,4.14
2018-01-14T04:09:13.872Z,4.15
2018-01-14T04:10:16.344Z,4.20
2018-01-14T04:11:18.901Z,4.27
2018-01-14T04:12:21.378Z,4.24
2018-01-14T04:13:23.848Z,4.16
2018-01-14T04:14:26.317Z,4.18
2018-01-14T04:15:28.808Z,4.17
2018-01-14T04:16:31.290Z,4.25
2018-01-14T04:17:33.764Z,4.30
2018-01-14T04:18:36.240Z,4.21
2018-01-14T04:19:38.697Z,4.08
2018-01-14T04:20:41.153Z,4.12
2018-01-14T04:21:43.696Z,4.00
2018-01-14T04:22:46.176Z,4.10
2018-01-14T04:23:48.638Z,4.16
2018-01-14T04:24:51.110Z,4.06
2018-01-14T04:25:53.578Z,3.99
2018-01-14T04:26:56.050Z,3.99
2018-01-14T04:27:58.534Z,3.97
2018-01-14T04:29:01.003Z,4.09
2018-01-14T04:30:03.470Z,4.00
2018-01-14T04:31:05.952Z,4.03
2018-01-14T04:32:08.466Z,4.16
2018-01-14T04:33:10.934Z,4.19
2018-01-14T04:34:13.423Z,4.13
2018-01-14T04:35:15.900Z,4.11
2018-01-14T04:36:18.375Z,4.03
2018-01-14T04:37:20.880Z,4.12
2018-01-14T04:38:23.347Z,3.97
2018-01-14T04:39:25.818Z,4.00
2018-01-14T04:40:28.294Z,4.06
2018-01-14T04:41:30.795Z,4.09
2018-01-14T04:42:33.249Z,4.15
2018-01-14T04:43:35.725Z,4.09
2018-01-14T04:44:38.189Z,4.09
2018-01-14T04:45:40.650Z,4.11
2018-01-14T04:46:43.119Z,3.97
2018-01-14T04:47:45.583Z,4.05
2018-01-14T04:48:48.065Z,4.08
2018-01-14T04:49:50.543Z,3.97
2018-01-14T04:50:53.009Z,3.92
2018-01-14T04:51:55.469Z,3.93
2018-01-14T04:52:57.925Z,3.95
2018-01-14T04:54:00.407Z,4.01
2018-01-14T04:55:02.923Z,3.98
2018-01-14T04:56:05.381Z,4.05
2018-01-14T04:57:07.846Z,4.04
2018-01-14T04:58:10.328Z,4.15
2018-01-14T04:59:12.803Z,4.09
2018-01-14T05:00:15.262Z,4.04
2018-01-14T05:01:17.722Z,3.95
2018-01-14T05:02:20.189Z,3.93
2018-01-14T05:03:22.671Z,3.91
2018-01-14T05:04:25.449Z,3.98
2018-01-14T05:05:27.914Z,4.05
2018-01-14T05:06:30.385Z,4.08
2018-01-14T05:07:32.849Z,4.03
2018-01-14T05:08:35.309Z,4.05
2018-01-14T05:09:37.784Z,4.10
2018-01-14T05:10:40.255Z,3.99
2018-01-14T05:11:42.722Z,3.92
2018-01-14T05:12:45.181Z,3.87
2018-01-14T05:13:47.655Z,3.90
2018-01-14T05:14:50.119Z,3.82
2018-01-14T05:15:52.585Z,3.82
2018-01-14T05:16:55.065Z,3.83
2018-01-14T05:17:57.523Z,3.90
2018-01-14T05:18:59.995Z,3.90
2018-01-14T05:20:02.482Z,3.91
2018-01-14T05:21:04.955Z,3.95
2018-01-14T05:22:07.423Z,3.89
2018-01-14T05:23:09.900Z,3.96
2018-01-14T05:24:12.358Z,3.95
2018-01-14T05:25:14.840Z,3.89
2018-01-14T05:26:17.305Z,3.98
2018-01-14T05:27:19.770Z,3.94
2018-01-14T05:28:22.257Z,3.86
2018-01-14T05:29:24.722Z,3.91
2018-01-14T05:30:27.199Z,3.96
2018-01-14T05:31:29.677Z,3.97
2018-01-14T05:32:32.139Z,3.91
2018-01-14T05:33:34.619Z,3.89
2018-01-14T05:34:37.099Z,3.93
2018-01-14T05:35:39.572Z,4.01
2018-01-14T05:36:42.100Z,3.93
2018-01-14T05:37:44.530Z,3.85
2018-01-14T05:38:46.994Z,3.95
2018-01-14T05:39:49.458Z,3.83
2018-01-14T05:40:51.922Z,3.91
2018-01-14T05:41:54.400Z,3.99
2018-01-14T05:42:56.891Z,3.99
2018-01-14T05:43:59.361Z,4.00
2018-01-14T05:45:01.856Z,3.98
2018-01-14T05:46:04.326Z,3.92
2018-01-14T05:47:06.818Z,3.92
2018-01-14T05:48:09.282Z,3.86
2018-01-14T05:49:11.768Z,3.82
2018-01-14T05:50:14.223Z,3.89
2018-01-14T05:51:16.728Z,3.94
2018-01-14T05:52:19.193Z,3.93
2018-01-14T05:53:21.708Z,3.81
2018-01-14T05:54:24.188Z,3.79
2018-01-14T05:55:26.663Z,3.79
2018-01-14T05:56:29.122Z,3.85
2018-01-14T05:57:31.600Z,3.86
2018-01-14T05:58:34.054Z,3.90
2018-01-14T05:59:36.549Z,3.87
2018-01-14T06:00:39.009Z,3.84
2018-01-14T06:01:41.483Z,3.84
2018-01-14T06:02:43.948Z,3.93
2018-01-14T06:03:46.447Z,3.87
2018-01-14T06:04:48.905Z,3.85
2018-01-14T06:05:51.387Z,3.79
2018-01-14T06:06:53.859Z,3.75
2018-01-14T06:07:56.347Z,3.70
2018-01-14T06:08:58.936Z,3.80
2018-01-14T06:10:01.398Z,3.83
2018-01-14T06:11:03.853Z,3.74
2018-01-14T06:12:06.309Z,3.74
2018-01-14T06:13:08.815Z,3.77
2018-01-14T06:14:11.294Z,3.70
2018-01-14T06:15:13.755Z,3.80
2018-01-14T06:16:16.232Z,3.76
2018-01-14T06:17:18.701Z,3.69
2018-01-14T06:18:21.172Z,3.73
2018-01-14T06:19:23.629Z,3.81
2018-01-14T06:20:26.093Z,3.77
2018-01-14T06:21:28.580Z,3.75
2018-01-14T06:22:31.060Z,3.84
2018-01-14T06:23:33.517Z,3.79
2018-01-14T06:24:35.986Z,3.75
2018-01-14T06:25:38.450Z,3.79
2018-01-14T06:26:40.924Z,3.72
2018-01-14T06:27:43.425Z,3.63
2018-01-14T06:28:45.885Z,3.65
2018-01-14T06:29:48.346Z,3.61
2018-01-14T06:30:50.819Z,3.75
2018-01-14T06:31:53.273Z,3.79
2018-01-14T06:32:55.733Z,3.84
2018-01-14T06:33:58.209Z,3.82
2018-01-14T06:35:00.675Z,3.71
2018-01-14T06:36:03.153Z,3.68
2018-01-14T06:37:05.632Z,3.76
2018-01-14T06:38:08.349Z,3.73
2018-01-14T06:39:10.828Z,3.71
2018-01-14T06:40:13.295Z,3.71
2018-01-14T06:41:15.796Z,3.71
2018-01-14T06:42:18.287Z,3.58
2018-01-14T06:43:20.768Z,3.53
2018-01-14T06:44:23.290Z,3.60
2018-01-14T06:45:25.750Z,3.70
2018-01-14T06:46:28.218Z,3.67
2018-01-14T06:47:30.695Z,3.55
2018-01-14T06:48:33.176Z,3.55
2018-01-14T06:49:35.638Z,3.59
2018-01-14T06:50:38.112Z,3.64
2018-01-14T06:51:40.588Z,3.64
2018-01-14T06:52:43.050Z,3.56
2018-01-14T06:53:45.524Z,3.60
2018-01-14T06:54:47.996Z,3.44
2018-01-14T06:55:50.496Z,3.47
2018-01-14T06:56:52.968Z,3.52
2018-01-14T06:57:55.444Z,3.51
2018-01-14T06:58:57.920Z,3.44
2018-01-14T07:00:00.392Z,3.50
2018-01-14T07:01:02.854Z,3.49
2018-01-14T07:02:05.314Z,3.41
2018-01-14T07:03:07.784Z,3.32
2018-01-14T07:04:10.263Z,3.33
2018-01-14T07:05:12.724Z,3.22
2018-01-14T07:06:15.185Z,3.16
2018-01-14T07:07:17.646Z,3.05
2018-01-14T07:08:20.106Z,3.20
2018-01-14T07:09:22.570Z,3.11
2018-01-14T07:10:25.036Z,3.12
2018-01-14T07:11:27.515Z,3.14
2018-01-14T07:12:29.974Z,3.03
2018-01-14T07:13:32.448Z,3.10
2018-01-14T07:14:34.911Z,3.03
2018-01-14T07:15:37.378Z,3.04
2018-01-14T07:16:39.846Z,2.96
2018-01-14T07:17:42.313Z,2.92
2018-01-14T07:18:44.806Z,2.85
2018-01-14T07:19:47.294Z,2.80
2018-01-14T07:20:49.772Z,2.65
2018-01-14T07:21:52.245Z,2.68
2018-01-14T07:22:54.710Z,2.73
2018-01-14T07:23:57.191Z,2.70
2018-01-14T07:24:59.650Z,2.72
2018-01-14T07:26:02.120Z,2.70
2018-01-14T07:27:04.601Z,2.71
2018-01-14T07:28:07.106Z,2.69
2018-01-14T07:29:09.577Z,2.69
2018-01-14T07:30:12.062Z,2.74
2018-01-14T07:31:14.534Z,2.72
2018-01-14T07:32:17.037Z,2.66
2018-01-14T07:33:19.516Z,2.66
2018-01-14T07:34:22.058Z,2.70
2018-01-14T07:35:24.527Z,2.74
2018-01-14T07:36:26.991Z,2.59
2018-01-14T07:37:29.467Z,2.62
2018-01-14T07:38:31.963Z,2.62
2018-01-14T07:39:34.440Z,2.57
2018-01-14T07:40:36.913Z,2.68
2018-01-14T07:41:39.388Z,2.51
2018-01-14T07:42:41.858Z,2.59
2018-01-14T07:43:44.342Z,2.65
2018-01-14T07:44:46.797Z,2.56
2018-01-14T07:45:49.278Z,2.64
2018-01-14T07:46:51.772Z,2.60
2018-01-14T07:47:54.254Z,2.62
2018-01-14T07:48:56.709Z,2.63
2018-01-14T07:49:59.187Z,2.68
2018-01-14T07:51:01.688Z,2.69
2018-01-14T07:52:04.164Z,2.73
2018-01-14T07:53:06.624Z,2.69
2018-01-14T07:54:09.081Z,2.64
2018-01-14T07:55:11.555Z,2.51
2018-01-14T07:56:14.040Z,2.60
2018-01-14T07:57:16.542Z,2.46
2018-01-14T07:58:19.044Z,2.39
2018-01-14T07:59:21.506Z,2.51
2018-01-14T08:00:24.040Z,2.56
2018-01-14T08:01:26.503Z,2.57
2018-01-14T08:02:28.985Z,2.57
2018-01-14T08:03:31.437Z,2.75
2018-01-14T08:04:33.901Z,2.72
2018-01-14T08:05:36.377Z,2.82
2018-01-14T08:06:38.860Z,2.80
2018-01-14T08:07:41.389Z,2.73
2018-01-14T08:08:43.857Z,2.66
2018-01-14T08:09:46.317Z,2.89
2018-01-14T08:10:48.803Z,2.82
2018-01-14T08:11:51.280Z,2.85
2018-01-14T08:12:53.744Z,2.82
2018-01-14T08:13:56.237Z,2.85
2018-01-14T08:14:58.701Z,2.91
2018-01-14T08:16:01.179Z,3.02
2018-01-14T08:17:03.670Z,3.00
2018-01-14T08:18:06.144Z,3.03
2018-01-14T08:19:08.624Z,2.88
2018-01-14T08:20:11.093Z,2.81
2018-01-14T08:21:13.593Z,3.07
2018-01-14T08:22:16.080Z,3.10
2018-01-14T08:23:18.541Z,3.20
2018-01-14T08:24:21.011Z,3.33
2018-01-14T08:25:23.469Z,3.24
2018-01-14T08:26:25.944Z,3.27
2018-01-14T08:27:28.432Z,3.15
2018-01-14T08:28:30.915Z,3.18
2018-01-14T08:29:33.393Z,3.26
2018-01-14T08:30:35.984Z,3.41
2018-01-14T08:31:38.442Z,3.33
2018-01-14T08:32:40.906Z,3.45
2018-01-14T08:33:43.386Z,3.59
2018-01-14T08:34:45.895Z,3.53
2018-01-14T08:35:48.372Z,3.47
2018-01-14T08:36:50.830Z,3.55
2018-01-14T08:37:53.307Z,3.61
2018-01-14T08:38:55.785Z,3.58
2018-01-14T08:39:58.404Z,3.59
2018-01-14T08:41:00.894Z,3.36
2018-01-14T08:42:03.449Z,3.41
2018-01-14T08:43:05.940Z,3.41
2018-01-14T08:44:08.417Z,3.49
2018-01-14T08:45:10.916Z,3.41
2018-01-14T08:46:13.433Z,3.49
2018-01-14T08:47:15.924Z,3.64
2018-01-14T08:48:18.399Z,3.58
2018-01-14T08:49:21.725Z,3.52
2018-01-14T08:50:24.196Z,3.60
2018-01-14T08:51:26.754Z,3.94
2018-01-14T08:52:29.219Z,3.92
2018-01-14T08:53:31.695Z,3.94
2018-01-14T08:54:34.176Z,4.23
2018-01-14T08:55:36.633Z,4.20
2018-01-14T08:56:39.113Z,4.43
2018-01-14T08:57:41.594Z,4.77
2018-01-14T08:58:44.054Z,4.41
2018-01-14T08:59:46.514Z,4.28
2018-01-14T09:00:48.985Z,4.30
2018-01-14T09:01:51.438Z,4.36
2018-01-14T09:02:53.920Z,4.35
2018-01-14T09:03:56.378Z,4.63
2018-01-14T09:04:58.842Z,4.40
2018-01-14T09:06:01.316Z,4.43
2018-01-14T09:07:03.795Z,4.40
2018-01-14T09:08:06.271Z,4.49
2018-01-14T09:09:08.859Z,4.37
2018-01-14T09:10:11.340Z,4.43
2018-01-14T09:11:13.812Z,4.22
2018-01-14T09:12:16.265Z,4.31
2018-01-14T09:13:18.723Z,4.53
2018-01-14T09:14:21.201Z,4.85
2018-01-14T09:15:23.687Z,4.86
2018-01-14T09:16:26.146Z,5.41
2018-01-14T09:17:28.613Z,5.40
2018-01-14T09:18:31.085Z,5.74
2018-01-14T09:19:33.559Z,5.82
2018-01-14T09:20:36.039Z,6.17
2018-01-14T09:21:38.526Z,6.62
2018-01-14T09:22:41.014Z,6.87
2018-01-14T09:23:43.487Z,6.85
2018-01-14T09:24:45.959Z,7.28
2018-01-14T09:25:48.417Z,6.85
2018-01-14T09:26:50.945Z,7.32
2018-01-14T09:27:53.421Z,7.99
2018-01-14T09:28:55.895Z,7.84
2018-01-14T09:29:58.358Z,7.89
2018-01-14T09:31:03.648Z,7.35
2018-01-14T09:32:06.131Z,7.18
2018-01-14T09:33:08.585Z,6.74
2018-01-14T09:34:11.045Z,7.03
2018-01-14T09:35:13.505Z,7.53
2018-01-14T09:36:16.064Z,7.97
2018-01-14T09:37:18.541Z,7.98
2018-01-14T09:38:21.041Z,7.36
2018-01-14T09:39:23.497Z,7.27
2018-01-14T09:40:25.969Z,7.19
2018-01-14T09:41:28.466Z,6.94
2018-01-14T09:42:30.975Z,7.60
2018-01-14T09:43:33.429Z,7.76
2018-01-14T09:44:35.899Z,6.36
2018-01-14T09:45:38.383Z,6.79
2018-01-14T09:46:40.873Z,6.91
2018-01-14T09:47:43.374Z,6.84
2018-01-14T09:48:45.849Z,6.66
2018-01-14T09:49:48.320Z,7.20
2018-01-14T09:50:50.800Z,7.75
2018-01-14T09:51:53.261Z,7.81
2018-01-14T09:52:55.755Z,8.30
2018-01-14T09:53:58.231Z,8.43
2018-01-14T09:55:00.699Z,8.76
2018-01-14T09:56:03.162Z,8.22
2018-01-14T09:57:05.623Z,8.24
2018-01-14T09:58:08.193Z,7.89
2018-01-14T09:59:10.663Z,7.88
2018-01-14T10:00:13.118Z,7.06
2018-01-14T10:01:15.582Z,7.82
2018-01-14T10:02:18.047Z,7.37
2018-01-14T10:03:20.527Z,7.68
2018-01-14T10:04:23.063Z,8.05
2018-01-14T10:05:25.543Z,8.29
2018-01-14T10:06:28.016Z,8.44
2018-01-14T10:07:30.487Z,8.10
2018-01-14T10:08:32.983Z,8.73
2018-01-14T10:09:35.456Z,8.24
2018-01-14T10:10:37.918Z,9.29
2018-01-14T10:11:40.418Z,9.82
2018-01-14T10:12:42.888Z,9.87
2018-01-14T10:13:45.367Z,9.75
2018-01-14T10:14:47.874Z,9.70
2018-01-14T10:15:50.342Z,8.48
2018-01-14T10:16:52.811Z,8.71
2018-01-14T10:17:55.284Z,8.09
2018-01-14T10:18:57.781Z,7.56
2018-01-14T10:20:00.248Z,7.10
2018-01-14T10:21:02.726Z,7.67
2018-01-14T10:22:05.182Z,7.26
2018-01-14T10:23:07.649Z,7.35
2018-01-14T10:24:10.157Z,7.93
2018-01-14T10:25:12.632Z,7.52
2018-01-14T10:26:15.104Z,7.18
2018-01-14T10:27:17.562Z,7.55
2018-01-14T10:28:22.827Z,7.61
2018-01-14T10:29:25.312Z,8.80
2018-01-14T10:30:27.770Z,9.13
2018-01-14T10:31:30.243Z,8.01
2018-01-14T10:32:32.716Z,8.37
2018-01-14T10:33:35.196Z,8.04
2018-01-14T10:34:37.681Z,8.24
2018-01-14T10:35:40.244Z,8.02
2018-01-14T10:36:42.763Z,8.28
2018-01-14T10:37:45.222Z,7.93
2018-01-14T10:38:47.692Z,6.85
2018-01-14T10:39:50.199Z,6.85
2018-01-14T10:40:52.658Z,7.07
2018-01-14T10:41:55.153Z,6.85
2018-01-14T10:42:57.639Z,7.63
2018-01-14T10:44:00.116Z,8.22
2018-01-14T10:45:02.636Z,7.09
2018-01-14T10:46:05.107Z,7.22
2018-01-14T10:47:07.598Z,7.04
2018-01-14T10:48:10.937Z,7.64
2018-01-14T10:49:13.402Z,7.05
2018-01-14T10:50:15.896Z,7.68
2018-01-14T10:51:18.355Z,7.90
2018-01-14T10:52:20.898Z,8.42
2018-01-14T10:53:25.260Z,7.90
2018-01-14T10:54:27.746Z,7.75
2018-01-14T10:55:30.212Z,8.43
2018-01-14T10:56:32.674Z,8.59
2018-01-14T10:57:35.152Z,8.74
2018-01-14T10:58:37.623Z,9.84
2018-01-14T10:59:40.101Z,9.72
2018-01-14T11:00:48.135Z,9.58
2018-01-14T11:01:50.604Z,9.49
2018-01-14T11:02:53.092Z,9.59
2018-01-14T11:03:55.580Z,9.14
2018-01-14T11:04:58.051Z,8.86
2018-01-14T11:06:00.518Z,8.80
2018-01-14T11:07:02.983Z,8.45
2018-01-14T11:08:05.434Z,8.48
2018-01-14T11:09:07.890Z,8.46
2018-01-14T11:10:10.368Z,9.50
2018-01-14T11:11:12.846Z,10.14
2018-01-14T11:12:15.310Z,9.89
2018-01-14T11:13:17.784Z,10.72
2018-01-14T11:14:20.262Z,11.14
2018-01-14T11:15:22.814Z,10.84
2018-01-14T11:16:25.371Z,11.70
2018-01-14T11:17:27.842Z,12.28
2018-01-14T11:18:30.857Z,12.45
2018-01-14T11:19:33.340Z,11.73
2018-01-14T11:20:35.797Z,11.98
2018-01-14T11:21:38.280Z,12.70
2018-01-14T11:22:40.757Z,11.92
2018-01-14T11:23:43.238Z,12.69
2018-01-14T11:24:45.727Z,12.01
2018-01-14T11:25:48.185Z,12.11
2018-01-14T11:26:50.662Z,12.70
2018-01-14T11:27:53.139Z,12.76
2018-01-14T11:28:55.613Z,11.11
2018-01-14T11:30:08.206Z,10.76
2018-01-14T11:31:10.684Z,10.56
2018-01-14T11:32:13.169Z,11.48
2018-01-14T11:33:15.626Z,11.88
2018-01-14T11:34:18.090Z,11.89
2018-01-14T11:35:20.569Z,11.20
2018-01-14T11:36:23.030Z,9.31
2018-01-14T11:37:25.545Z,9.90
2018-01-14T11:38:28.009Z,10.26
2018-01-14T11:39:30.465Z,9.53
2018-01-14T11:40:32.952Z,9.51
2018-01-14T11:41:35.423Z,9.84
2018-01-14T11:42:37.928Z,8.93
2018-01-14T11:43:40.386Z,8.58
2018-01-14T11:44:42.980Z,8.96
2018-01-14T11:45:45.614Z,9.27
2018-01-14T11:46:48.197Z,8.66
2018-01-14T11:47:50.696Z,7.57
2018-01-14T11:48:53.160Z,7.83
2018-01-14T11:49:55.621Z,7.50
2018-01-14T11:50:58.152Z,6.97
2018-01-14T11:52:00.679Z,8.06
2018-01-14T11:53:03.160Z,8.27
2018-01-14T11:54:05.621Z,8.05
2018-01-14T11:55:08.111Z,7.78
2018-01-14T11:56:10.580Z,7.23
2018-01-14T11:57:13.055Z,6.23
2018-01-14T11:58:15.568Z,6.07
2018-01-14T11:59:18.022Z,7.48
2018-01-14T12:00:20.481Z,7.79
2018-01-14T12:01:22.992Z,7.49
2018-01-14T12:02:25.425Z,7.58
2018-01-14T12:03:27.898Z,7.31
2018-01-14T12:04:30.363Z,7.22
2018-01-14T12:05:32.826Z,6.72
2018-01-14T12:06:35.294Z,6.78
2018-01-14T12:07:37.772Z,7.41
2018-01-14T12:08:40.250Z,7.63
2018-01-14T12:09:42.708Z,7.64
2018-01-14T12:10:45.176Z,7.32
2018-01-14T12:11:47.629Z,8.00
2018-01-14T12:12:50.098Z,7.64
2018-01-14T12:13:52.604Z,7.84
2018-01-14T12:14:55.084Z,8.55
2018-01-14T12:15:57.556Z,8.50
2018-01-14T12:17:00.028Z,8.53
2018-01-14T12:18:02.662Z,8.46
2018-01-14T12:19:05.181Z,7.71
2018-01-14T12:20:07.645Z,7.75
2018-01-14T12:21:10.120Z,7.71
2018-01-14T12:22:12.598Z,7.35
2018-01-14T12:23:15.068Z,7.00
2018-01-14T12:24:17.562Z,7.20
2018-01-14T12:25:20.044Z,7.54
2018-01-14T12:26:22.501Z,7.60
2018-01-14T12:27:24.958Z,7.23
2018-01-14T12:28:27.416Z,7.57
2018-01-14T12:29:29.904Z,7.52
2018-01-14T12:30:32.362Z,7.59
2018-01-14T12:31:34.844Z,7.55
2018-01-14T12:32:49.095Z,7.95
2018-01-14T12:35:40.312Z,7.34
2018-01-14T12:36:42.768Z,7.53
2018-01-14T12:37:45.240Z,7.20
2018-01-14T12:38:47.703Z,7.62
2018-01-14T12:39:50.597Z,7.70
2018-01-14T12:40:53.089Z,8.01
2018-01-14T12:41:55.560Z,8.01
2018-01-14T12:42:58.017Z,8.48
2018-01-14T12:44:00.483Z,9.44
2018-01-14T12:45:02.981Z,8.90
2018-01-14T12:46:05.641Z,9.50
2018-01-14T12:47:08.112Z,8.40
2018-01-14T12:48:10.605Z,8.19
2018-01-14T12:49:13.089Z,8.04
2018-01-14T12:50:15.573Z,8.44
2018-01-14T12:51:18.063Z,8.50
2018-01-14T12:52:20.543Z,7.78
2018-01-14T12:53:23.010Z,7.95
2018-01-14T12:54:25.481Z,7.43
2018-01-14T12:55:27.960Z,7.05
2018-01-14T12:56:30.457Z,7.39
2018-01-14T12:57:32.933Z,8.01
2018-01-14T12:58:35.390Z,7.25
2018-01-14T12:59:37.892Z,7.59
2018-01-14T13:00:40.368Z,8.11
2018-01-14T13:01:42.880Z,8.25
2018-01-14T13:02:45.342Z,7.63
2018-01-14T13:03:47.813Z,7.00
2018-01-14T13:04:50.284Z,7.12
2018-01-14T13:05:52.753Z,7.05
2018-01-14T13:06:55.252Z,7.24
2018-01-14T13:07:57.736Z,6.89
2018-01-14T13:09:00.199Z,6.58
2018-01-14T13:10:02.662Z,6.72
2018-01-14T13:11:05.132Z,6.62
2018-01-14T13:12:07.618Z,6.24
2018-01-14T13:13:10.104Z,6.41
2018-01-14T13:14:12.565Z,6.41
2018-01-14T13:15:15.036Z,6.28
2018-01-14T13:16:17.489Z,6.26
2018-01-14T13:17:20.020Z,6.32
2018-01-14T13:18:22.477Z,6.09
2018-01-14T13:19:24.943Z,6.04
2018-01-14T13:20:27.402Z,6.30
2018-01-14T13:21:29.879Z,7.13
2018-01-14T13:22:32.365Z,7.02
2018-01-14T13:23:34.934Z,6.72
2018-01-14T13:24:37.411Z,7.66
2018-01-14T13:25:39.866Z,7.69
2018-01-14T13:26:42.343Z,8.13
2018-01-14T13:27:44.822Z,8.32
2018-01-14T13:28:47.319Z,8.32
2018-01-14T13:29:49.780Z,7.49
2018-01-14T13:30:52.238Z,7.38
2018-01-14T13:31:54.712Z,7.39
2018-01-14T13:32:57.200Z,7.58
2018-01-14T13:33:59.661Z,7.76
2018-01-14T13:35:02.126Z,8.43
2018-01-14T13:36:04.628Z,8.38
2018-01-14T13:37:07.107Z,8.15
2018-01-14T13:38:09.582Z,8.64
2018-01-14T13:39:12.069Z,9.08
2018-01-14T13:40:14.525Z,9.01
2018-01-14T13:41:17.012Z,9.43
2018-01-14T13:42:19.463Z,9.43
2018-01-14T13:43:21.957Z,9.47
2018-01-14T13:44:24.470Z,9.89
2018-01-14T13:45:26.934Z,9.34
2018-01-14T13:46:29.398Z,10.28
2018-01-14T13:47:31.872Z,10.14
2018-01-14T13:48:34.372Z,10.24
2018-01-14T13:49:36.889Z,9.48
2018-01-14T13:50:39.382Z,9.57
2018-01-14T13:51:41.858Z,9.09
2018-01-14T13:52:44.314Z,8.66